Time;durP1;ratioP1;P1;durP2;ratioP2;P2;SDS_P1;SDS_P2;PMS_P1;PMS_P2;Temp;Humidity;BMP_temperature;BMP_pressure;BME280_temperature;BME280_humidity;BME280_pressure;Samples;Min_cycle;Max_cycle;Signal;HPM_P1;HPM_P2
2022/04/03 00:01:31;;;;;;;9.38;8.55;;;21.60;66.60;;;;;;6245084;27;84100;-70
2022/04/03 00:04:33;;;;;;;9.45;8.65;;;21.60;66.60;;;;;;6238035;28;84052;-70
2022/04/03 00:07:35;;;;;;;9.23;8.40;;;21.60;66.60;;;;;;6245339;27;85014;-70
2022/04/03 00:10:39;;;;;;;9.43;8.63;;;21.60;66.60;;;;;;6258214;27;84007;-71
2022/04/03 00:13:42;;;;;;;8.77;7.97;;;21.60;66.60;;;;;;6260541;27;84112;-70
2022/04/03 00:16:43;;;;;;;9.25;8.45;;;21.60;66.60;;;;;;6262746;27;83755;-69
2022/04/03 00:19:46;;;;;;;8.90;8.10;;;21.60;66.60;;;;;;6260043;27;83971;-71
2022/04/03 00:22:49;;;;;;;8.70;7.90;;;21.60;66.60;;;;;;6261103;27;84001;-69
2022/04/03 00:25:53;;;;;;;8.65;7.85;;;21.60;66.60;;;;;;6260718;27;85196;-70
2022/04/03 00:28:55;;;;;;;8.63;7.82;;;21.60;66.50;;;;;;6260531;27;83502;-70
2022/04/03 00:31:57;;;;;;;8.07;7.28;;;21.60;66.50;;;;;;6248858;27;82909;-70
2022/04/03 00:34:59;;;;;;;8.55;7.75;;;21.60;66.40;;;;;;6246943;27;84332;-70
2022/04/03 00:38:01;;;;;;;8.25;7.55;;;21.60;66.40;;;;;;6253204;27;83834;-70
2022/04/03 00:41:05;;;;;;;8.15;7.45;;;21.60;66.40;;;;;;6252039;27;84020;-70
2022/04/03 00:44:07;;;;;;;8.07;7.38;;;21.50;66.30;;;;;;6259394;27;84040;-70
2022/04/03 00:47:10;;;;;;;7.38;6.78;;;21.50;66.60;;;;;;6259411;28;84049;-70
2022/04/03 00:50:13;;;;;;;8.20;7.50;;;21.50;66.40;;;;;;6258385;27;83745;-69
2022/04/03 00:53:14;;;;;;;7.35;6.70;;;21.50;66.40;;;;;;6250402;27;83996;-70
2022/04/03 00:56:18;;;;;;;7.60;6.90;;;21.50;66.40;;;;;;6249884;28;83248;-70
2022/04/03 00:59:20;;;;;;;7.22;6.63;;;21.50;66.40;;;;;;6260184;27;83261;-70
2022/04/03 01:02:22;;;;;;;7.10;6.50;;;21.50;66.40;;;;;;6260146;27;84277;-70
2022/04/03 01:05:25;;;;;;;7.25;6.65;;;21.50;66.50;;;;;;6259924;27;82766;-70
2022/04/03 01:08:28;;;;;;;7.28;6.68;;;21.40;66.40;;;;;;6254185;28;85069;-71
2022/04/03 01:11:31;;;;;;;7.63;6.93;;;21.50;66.40;;;;;;6260709;27;84022;-70
2022/04/03 01:14:34;;;;;;;6.65;6.05;;;21.50;66.40;;;;;;6261851;27;84258;-70
2022/04/03 01:17:36;;;;;;;6.85;6.25;;;21.50;66.50;;;;;;6259778;27;84136;-69
2022/04/03 01:20:38;;;;;;;6.80;6.20;;;21.50;66.50;;;;;;6250007;27;84364;-70
2022/04/03 01:23:41;;;;;;;6.72;6.13;;;21.40;66.30;;;;;;6255863;27;82718;-70
2022/04/03 01:26:45;;;;;;;6.80;6.20;;;21.50;66.60;;;;;;6246789;27;84039;-70
2022/04/03 01:29:48;;;;;;;6.40;5.80;;;21.40;66.40;;;;;;6251555;27;83256;-70
2022/04/03 01:32:50;;;;;;;6.22;5.65;;;21.40;66.40;;;;;;6260635;27;85096;-70
2022/04/03 01:35:52;;;;;;;6.10;5.60;;;21.40;66.40;;;;;;6260574;27;82994;-69
2022/04/03 01:38:54;;;;;;;6.13;5.63;;;21.40;66.40;;;;;;6257042;28;85169;-70
2022/04/03 01:41:57;;;;;;;5.93;5.43;;;21.40;66.40;;;;;;6245112;27;82949;-70
2022/04/03 01:44:59;;;;;;;6.20;5.70;;;21.40;66.30;;;;;;6259053;27;84036;-70
2022/04/03 01:48:01;;;;;;;5.68;5.20;;;21.40;66.30;;;;;;6259944;27;84079;-70
2022/04/03 01:51:03;;;;;;;6.20;5.60;;;21.40;66.30;;;;;;6260611;27;84144;-70
2022/04/03 01:54:05;;;;;;;5.68;5.20;;;21.40;67.20;;;;;;6260366;27;84561;-71
2022/04/03 01:57:09;;;;;;;5.78;5.28;;;21.40;66.20;;;;;;6257221;27;84031;-70
2022/04/03 02:00:11;;;;;;;5.25;4.85;;;21.40;66.30;;;;;;6244750;27;83397;-70
2022/04/03 02:03:13;;;;;;;5.75;5.25;;;21.40;66.30;;;;;;6261446;27;83044;-70
2022/04/03 02:06:15;;;;;;;5.60;5.10;;;21.40;66.20;;;;;;6264019;27;84226;-71
2022/04/03 02:09:18;;;;;;;5.10;4.70;;;21.30;66.10;;;;;;6264908;27;84959;-70
2022/04/03 02:12:21;;;;;;;5.40;4.90;;;21.40;66.30;;;;;;6259726;27;84021;-71
2022/04/03 02:15:24;;;;;;;5.47;4.97;;;21.40;66.30;;;;;;6255996;27;84410;-70
2022/04/03 02:18:26;;;;;;;5.60;5.10;;;21.30;66.20;;;;;;6262709;27;82890;-70
2022/04/03 02:21:28;;;;;;;5.63;5.13;;;21.30;66.20;;;;;;6262193;28;84063;-70
2022/04/03 02:24:30;;;;;;;5.50;5.00;;;21.30;66.20;;;;;;6262225;27;84031;-70
2022/04/03 02:27:33;;;;;;;5.10;4.70;;;21.30;66.20;;;;;;6263964;27;84525;-70
2022/04/03 02:30:35;;;;;;;4.82;4.43;;;21.30;66.10;;;;;;6263853;27;83283;-70
2022/04/03 02:33:37;;;;;;;5.40;4.90;;;21.30;66.20;;;;;;6262918;27;83220;-70
2022/04/03 02:36:40;;;;;;;5.00;4.60;;;21.30;66.10;;;;;;6259571;27;83070;-70
2022/04/03 02:39:43;;;;;;;4.80;4.40;;;21.30;66.30;;;;;;6262606;27;83859;-71
2022/04/03 02:42:47;;;;;;;4.80;4.40;;;21.30;66.30;;;;;;6263201;27;84064;-71
2022/04/03 02:45:49;;;;;;;4.90;4.50;;;21.20;66.30;;;;;;6263376;27;83948;-70
2022/04/03 02:48:51;;;;;;;4.57;4.18;;;21.30;66.40;;;;;;6263419;27;84165;-70
2022/04/03 02:51:53;;;;;;;4.57;4.18;;;21.20;66.30;;;;;;6262129;27;85803;-70
2022/04/03 02:54:56;;;;;;;4.95;4.55;;;21.20;66.30;;;;;;6264161;27;84297;-70
2022/04/03 02:58:01;;;;;;;4.50;4.10;;;21.30;66.30;;;;;;6262147;28;83275;-70
2022/04/03 03:01:02;;;;;;;4.40;4.10;;;21.30;66.30;;;;;;6263194;27;84174;-71
2022/04/03 03:04:05;;;;;;;4.28;3.95;;;21.30;66.20;;;;;;6261707;27;84044;-71
2022/04/03 03:07:09;;;;;;;4.72;4.32;;;21.30;66.30;;;;;;6260589;27;83284;-71
2022/04/03 03:10:15;;;;;;;4.72;4.32;;;21.30;66.30;;;;;;6262260;27;84983;-70
2022/04/03 03:13:18;;;;;;;4.70;4.30;;;21.30;66.30;;;;;;6262384;27;84386;-71
2022/04/03 03:16:20;;;;;;;5.00;4.60;;;21.20;66.30;;;;;;6261810;27;84294;-70
2022/04/03 03:19:23;;;;;;;4.88;4.47;;;21.20;66.20;;;;;;6262688;27;84466;-70
2022/04/03 03:22:25;;;;;;;5.30;4.90;;;21.20;66.30;;;;;;6263362;27;84081;-70
2022/04/03 03:25:27;;;;;;;5.00;4.60;;;21.20;66.20;;;;;;6262564;27;84064;-70
2022/04/03 03:28:31;;;;;;;5.28;4.85;;;21.20;66.10;;;;;;6260792;27;83990;-69
2022/04/03 03:31:33;;;;;;;5.38;4.88;;;21.20;66.10;;;;;;6250721;28;83356;-70
2022/04/03 03:34:35;;;;;;;5.20;4.70;;;21.20;66.40;;;;;;6248575;27;84100;-70
2022/04/03 03:37:38;;;;;;;5.30;4.82;;;21.20;66.10;;;;;;6257902;27;84178;-70
2022/04/03 03:40:40;;;;;;;4.70;4.30;;;21.20;66.10;;;;;;6245523;27;87088;-70
2022/04/03 03:43:44;;;;;;;5.15;4.65;;;21.20;66.10;;;;;;6263910;27;83987;-70
2022/04/03 03:46:46;;;;;;;5.70;5.20;;;21.30;66.10;;;;;;6248689;27;84056;-70
2022/04/03 03:49:48;;;;;;;5.80;5.30;;;21.20;66.00;;;;;;6238313;27;84621;-70
2022/04/03 03:52:50;;;;;;;5.95;5.45;;;21.20;66.00;;;;;;6259449;27;84234;-70
2022/04/03 03:55:52;;;;;;;6.03;5.43;;;21.30;66.00;;;;;;6261533;27;83946;-70
2022/04/03 03:58:56;;;;;;;6.40;5.80;;;21.30;66.00;;;;;;6260158;27;84116;-70
2022/04/03 04:01:59;;;;;;;6.68;6.07;;;21.30;66.00;;;;;;6262235;27;83958;-70
2022/04/03 04:05:01;;;;;;;6.10;5.50;;;21.30;66.00;;;;;;6259746;27;84031;-70
2022/04/03 04:08:04;;;;;;;6.30;5.70;;;21.30;66.00;;;;;;6260549;27;84106;-70
2022/04/03 04:11:06;;;;;;;6.80;6.20;;;21.30;66.00;;;;;;6260150;27;83810;-71
2022/04/03 04:14:09;;;;;;;7.13;6.43;;;21.30;66.00;;;;;;6251020;27;83053;-70
2022/04/03 04:17:11;;;;;;;6.45;5.85;;;21.30;66.00;;;;;;6261948;27;84108;-69
2022/04/03 04:20:16;;;;;;;6.78;6.18;;;21.30;66.90;;;;;;6256926;27;82582;-70
2022/04/03 04:23:19;;;;;;;6.97;6.38;;;21.30;66.00;;;;;;6261339;27;84119;-70
2022/04/03 04:26:21;;;;;;;6.97;6.38;;;21.40;66.00;;;;;;6259854;27;84074;-71
2022/04/03 04:29:24;;;;;;;6.80;6.20;;;21.40;65.90;;;;;;6260446;27;84080;-69
2022/04/03 04:32:26;;;;;;;6.93;6.32;;;21.40;66.00;;;;;;6261217;28;82165;-70
2022/04/03 04:35:28;;;;;;;7.10;6.40;;;21.40;65.90;;;;;;6247207;27;84058;-70
2022/04/03 04:38:30;;;;;;;7.22;6.55;;;21.40;65.90;;;;;;6248774;27;82954;-70
2022/04/03 04:41:32;;;;;;;7.03;6.38;;;21.40;65.80;;;;;;6259433;27;85136;-69
2022/04/03 04:44:36;;;;;;;7.30;6.60;;;21.40;65.80;;;;;;6260236;27;84017;-70
2022/04/03 04:47:38;;;;;;;7.47;6.78;;;21.40;65.80;;;;;;6259067;27;84462;-70
2022/04/03 04:50:40;;;;;;;7.40;6.70;;;21.40;65.80;;;;;;6260657;27;84250;-70
2022/04/03 04:53:42;;;;;;;7.63;6.93;;;21.50;65.80;;;;;;6262533;27;84251;-70
2022/04/03 04:56:44;;;;;;;7.38;6.68;;;21.50;65.70;;;;;;6260958;27;84098;-70
2022/04/03 04:59:48;;;;;;;7.20;6.60;;;21.50;65.70;;;;;;6259711;27;84158;-70
2022/04/03 05:02:50;;;;;;;7.40;6.70;;;21.50;65.70;;;;;;6249133;27;83231;-69
2022/04/03 05:05:52;;;;;;;7.57;6.88;;;21.50;65.80;;;;;;6260755;27;83093;-70
2022/04/03 05:08:55;;;;;;;7.47;6.78;;;21.40;65.70;;;;;;6258837;27;84099;-70
2022/04/03 05:11:57;;;;;;;7.43;6.72;;;21.50;65.70;;;;;;6260927;27;84938;-69
2022/04/03 05:15:00;;;;;;;7.40;6.70;;;21.50;65.70;;;;;;6260380;27;84037;-69
2022/04/03 05:18:02;;;;;;;7.30;6.60;;;21.50;65.60;;;;;;6258316;27;84054;-70
2022/04/03 05:21:05;;;;;;;7.32;6.63;;;21.50;65.60;;;;;;6260740;27;84102;-71
2022/04/03 05:24:07;;;;;;;7.47;6.78;;;21.50;65.50;;;;;;6260105;27;84363;-70
2022/04/03 05:27:09;;;;;;;7.03;6.40;;;21.60;65.50;;;;;;6252647;27;84219;-70
2022/04/03 05:30:14;;;;;;;7.50;6.80;;;21.50;65.50;;;;;;6254354;27;84122;-70
2022/04/03 05:33:16;;;;;;;7.30;6.60;;;21.50;65.50;;;;;;6256049;27;83297;-70
2022/04/03 05:36:18;;;;;;;7.13;6.50;;;21.50;65.50;;;;;;6250924;28;83970;-70
2022/04/03 05:39:20;;;;;;;6.60;6.00;;;21.60;65.50;;;;;;6257842;27;84073;-70
2022/04/03 05:42:23;;;;;;;7.10;6.50;;;21.60;65.50;;;;;;6258931;27;85026;-70
2022/04/03 05:45:28;;;;;;;7.53;6.82;;;21.60;65.50;;;;;;6259405;27;84053;-70
2022/04/03 05:48:30;;;;;;;7.30;6.60;;;21.60;65.50;;;;;;6261022;27;84070;-70
2022/04/03 05:51:32;;;;;;;6.65;6.05;;;21.50;65.40;;;;;;6259039;27;84061;-70
2022/04/03 05:54:34;;;;;;;6.70;6.10;;;21.60;65.50;;;;;;6258758;27;84052;-70
2022/04/03 05:57:37;;;;;;;7.18;6.50;;;21.60;65.50;;;;;;6259866;27;84295;-70
2022/04/03 06:00:41;;;;;;;6.25;5.65;;;21.60;65.50;;;;;;6258660;27;84085;-70
2022/04/03 06:03:43;;;;;;;6.57;5.97;;;21.60;65.50;;;;;;6260232;27;83276;-70
2022/04/03 06:06:45;;;;;;;7.38;6.68;;;21.60;65.50;;;;;;6245087;27;84121;-69
2022/04/03 06:09:47;;;;;;;7.13;6.43;;;21.60;65.50;;;;;;6259160;28;83967;-69
2022/04/03 06:12:57;;;;;;;6.95;6.32;;;21.60;65.50;;;;;;6256949;27;85288;-70
2022/04/03 06:16:00;;;;;;;6.88;6.25;;;21.60;65.50;;;;;;6257449;27;84129;-70
2022/04/03 06:19:02;;;;;;;6.57;5.97;;;21.60;65.50;;;;;;6259473;28;84089;-70
2022/04/03 06:22:05;;;;;;;7.35;6.65;;;21.60;65.50;;;;;;6259500;27;84105;-70
2022/04/03 06:25:08;;;;;;;6.28;5.78;;;21.60;65.50;;;;;;6257901;27;84055;-70
2022/04/03 06:28:10;;;;;;;6.30;5.78;;;21.60;65.50;;;;;;6259787;27;82901;-70
2022/04/03 06:31:13;;;;;;;6.63;6.03;;;21.60;65.50;;;;;;6258734;27;83961;-70
2022/04/03 06:34:15;;;;;;;6.25;5.72;;;21.60;65.50;;;;;;6246632;27;83819;-70
2022/04/03 06:37:17;;;;;;;6.32;5.72;;;21.60;65.40;;;;;;6248681;27;84652;-70
2022/04/03 06:40:20;;;;;;;6.65;6.05;;;21.60;65.40;;;;;;6258424;28;84341;-70
2022/04/03 06:43:24;;;;;;;6.43;5.82;;;21.70;65.40;;;;;;6252569;27;85268;-69
2022/04/03 06:46:28;;;;;;;6.43;5.82;;;21.70;65.40;;;;;;6260887;27;82953;-70
2022/04/03 06:49:31;;;;;;;6.10;5.55;;;21.70;65.40;;;;;;6262819;27;82761;-70
2022/04/03 06:52:34;;;;;;;6.05;5.55;;;21.70;65.40;;;;;;6261293;27;84369;-70
2022/04/03 06:55:36;;;;;;;5.85;5.35;;;21.70;65.30;;;;;;6263323;27;84423;-70
2022/04/03 06:58:38;;;;;;;6.30;5.70;;;21.70;65.30;;;;;;6261685;27;84070;-70
2022/04/03 07:01:41;;;;;;;6.10;5.60;;;21.70;65.20;;;;;;6263660;27;84032;-70
2022/04/03 07:04:44;;;;;;;6.00;5.47;;;21.70;65.30;;;;;;6262567;27;83226;-71
2022/04/03 07:07:46;;;;;;;5.82;5.32;;;21.70;65.30;;;;;;6249156;27;84029;-69
2022/04/03 07:10:48;;;;;;;6.30;5.70;;;21.70;65.30;;;;;;6262716;27;84025;-69
2022/04/03 07:13:50;;;;;;;5.80;5.30;;;21.70;65.30;;;;;;6262395;27;84956;-69
2022/04/03 07:16:53;;;;;;;5.45;5.00;;;21.70;65.30;;;;;;6260764;27;83914;-70
2022/04/03 07:19:55;;;;;;;5.80;5.30;;;21.70;65.30;;;;;;6250108;27;84072;-70
2022/04/03 07:22:57;;;;;;;5.70;5.20;;;21.70;65.40;;;;;;6250352;27;82008;-70
2022/04/03 07:25:59;;;;;;;5.65;5.13;;;21.70;65.40;;;;;;6248954;28;84033;-70
2022/04/03 07:29:01;;;;;;;5.68;5.18;;;21.70;65.40;;;;;;6263238;27;84174;-69
2022/04/03 07:32:06;;;;;;;6.03;5.43;;;21.70;65.40;;;;;;6260757;27;84202;-70
2022/04/03 07:35:08;;;;;;;5.60;5.10;;;21.70;65.40;;;;;;6262028;27;83371;-70
2022/04/03 07:38:10;;;;;;;5.55;5.05;;;21.70;65.40;;;;;;6261621;27;81992;-70
2022/04/03 07:41:13;;;;;;;5.85;5.35;;;21.70;65.50;;;;;;6261519;27;84025;-70
2022/04/03 07:44:15;;;;;;;5.75;5.25;;;21.70;65.40;;;;;;6259314;28;83866;-69
2022/04/03 07:47:19;;;;;;;5.30;4.80;;;21.70;65.30;;;;;;6262526;27;84023;-69
2022/04/03 07:50:21;;;;;;;4.82;4.43;;;21.80;65.40;;;;;;6260607;27;83881;-69
2022/04/03 07:53:23;;;;;;;5.43;4.93;;;21.70;65.30;;;;;;6260370;27;83897;-70
2022/04/03 07:56:25;;;;;;;4.90;4.50;;;21.70;65.20;;;;;;6261024;27;84342;-70
2022/04/03 07:59:27;;;;;;;5.40;4.90;;;21.80;65.20;;;;;;6262689;27;84152;-70
2022/04/03 08:02:49;;;;;;;5.18;4.70;;;21.80;65.20;;;;;;6260079;28;83229;-70
2022/04/03 08:05:51;;;;;;;4.90;4.50;;;21.80;65.20;;;;;;6259974;27;83302;-69
2022/04/03 08:08:53;;;;;;;5.53;5.03;;;21.80;65.20;;;;;;6255153;27;84017;-69
2022/04/03 08:11:55;;;;;;;4.70;4.30;;;21.80;65.20;;;;;;6257580;27;84013;-70
2022/04/03 08:14:58;;;;;;;5.20;4.70;;;21.80;65.20;;;;;;6260409;27;84881;-69
2022/04/03 08:18:01;;;;;;;4.80;4.40;;;21.80;65.20;;;;;;6254973;27;84010;-70
2022/04/03 08:21:03;;;;;;;4.93;4.50;;;21.80;65.30;;;;;;6259753;27;82872;-70
2022/04/03 08:24:06;;;;;;;4.55;4.15;;;21.70;65.20;;;;;;6249202;27;84002;-70
2022/04/03 08:27:08;;;;;;;4.90;4.50;;;21.80;65.30;;;;;;6249398;27;82899;-70
2022/04/03 08:30:13;;;;;;;5.00;4.60;;;21.80;65.30;;;;;;6261040;27;83994;-69
2022/04/03 08:33:16;;;;;;;4.57;4.18;;;21.80;65.40;;;;;;6262220;27;84026;-70
2022/04/03 08:36:18;;;;;;;5.03;4.57;;;21.80;65.40;;;;;;6260170;27;82186;-69
2022/04/03 08:39:20;;;;;;;4.68;4.22;;;21.80;65.40;;;;;;6261688;27;83035;-70
2022/04/03 08:42:23;;;;;;;4.60;4.20;;;21.80;65.40;;;;;;6259904;27;84032;-70
2022/04/03 08:45:25;;;;;;;4.68;4.28;;;21.80;65.30;;;;;;6259019;27;85029;-70
2022/04/03 08:48:32;;;;;;;4.72;4.30;;;21.80;65.30;;;;;;6248491;28;84647;-70
2022/04/03 08:51:37;;;;;;;4.47;4.07;;;21.80;65.30;;;;;;6261623;27;82969;-69
2022/04/03 08:54:40;;;;;;;4.30;3.92;;;21.80;65.40;;;;;;6258498;27;84000;-69
2022/04/03 08:57:42;;;;;;;4.18;3.83;;;21.80;65.40;;;;;;6253060;27;83952;-70
2022/04/03 09:00:45;;;;;;;4.70;4.30;;;21.80;65.30;;;;;;6255766;27;84350;-69
2022/04/03 09:03:48;;;;;;;4.45;4.05;;;21.80;65.30;;;;;;6259081;27;84106;-69
2022/04/03 09:06:58;;;;;;;4.47;4.07;;;21.80;65.30;;;;;;6260682;27;83369;-69
2022/04/03 09:10:07;;;;;;;4.28;3.92;;;21.80;65.30;;;;;;6258982;27;84064;-70
2022/04/03 09:13:10;;;;;;;3.97;3.58;;;21.80;65.20;;;;;;6259050;27;83983;-69
2022/04/03 09:16:12;;;;;;;4.30;3.90;;;21.90;65.20;;;;;;6260939;27;84958;-69
2022/04/03 09:19:16;;;;;;;4.40;3.97;;;21.90;65.20;;;;;;6259527;27;84063;-69
2022/04/03 09:22:28;;;;;;;4.10;3.70;;;21.90;65.20;;;;;;6255400;28;83220;-70
2022/04/03 09:25:32;;;;;;;4.20;3.90;;;21.80;65.20;;;;;;6250593;27;84009;-69
2022/04/03 09:28:39;;;;;;;4.15;3.75;;;21.80;65.20;;;;;;6241085;27;84091;-69
2022/04/03 09:31:42;;;;;;;3.88;3.58;;;21.90;65.30;;;;;;6259467;27;84366;-69
2022/04/03 09:34:47;;;;;;;4.13;3.78;;;21.90;65.30;;;;;;6258792;27;84014;-69
2022/04/03 09:38:09;;;;;;;4.43;4.03;;;21.80;65.20;;;;;;6259949;28;82255;-70
2022/04/03 09:41:11;;;;;;;4.20;3.80;;;21.90;65.30;;;;;;6258485;27;83990;-70
2022/04/03 09:44:17;;;;;;;3.95;3.65;;;21.80;65.30;;;;;;6242372;27;84460;-70
2022/04/03 09:47:26;;;;;;;3.72;3.42;;;21.90;65.30;;;;;;6249453;27;85050;-70
2022/04/03 09:50:29;;;;;;;3.83;3.53;;;21.90;65.40;;;;;;6259539;27;82837;-71
2022/04/03 09:53:42;;;;;;;4.18;3.88;;;21.90;65.30;;;;;;6259068;27;83965;-70
2022/04/03 09:56:44;;;;;;;4.30;3.90;;;21.90;65.30;;;;;;6248462;27;84372;-70
2022/04/03 09:59:51;;;;;;;4.15;3.85;;;21.90;65.30;;;;;;6259058;27;84204;-70
2022/04/03 10:02:59;;;;;;;4.00;3.58;;;21.90;65.30;;;;;;6258337;28;84448;-70
2022/04/03 10:06:03;;;;;;;4.60;4.20;;;21.90;65.40;;;;;;6259417;27;84251;-71
2022/04/03 10:09:07;;;;;;;3.88;3.58;;;21.90;65.30;;;;;;6259430;27;82518;-70
2022/04/03 10:12:09;;;;;;;4.57;4.10;;;21.90;65.30;;;;;;6259428;27;82981;-70
2022/04/03 10:15:12;;;;;;;4.47;4.07;;;21.90;65.30;;;;;;6260303;27;84053;-70
2022/04/03 10:18:14;;;;;;;4.43;4.03;;;21.90;65.30;;;;;;6263412;27;83898;-69
2022/04/03 10:21:22;;;;;;;4.90;4.50;;;21.90;65.30;;;;;;6262489;27;82987;-70
2022/04/03 10:24:26;;;;;;;4.57;4.18;;;21.90;65.30;;;;;;6250308;27;84290;-70
2022/04/03 10:27:33;;;;;;;4.78;4.38;;;21.90;65.20;;;;;;6262695;27;82780;-70
2022/04/03 10:30:37;;;;;;;4.60;4.20;;;21.90;65.20;;;;;;6264833;27;84100;-70
2022/04/03 10:33:42;;;;;;;5.00;4.60;;;21.90;65.20;;;;;;6262637;27;83055;-70
2022/04/03 10:36:48;;;;;;;4.88;4.43;;;21.90;65.20;;;;;;6263730;27;84063;-69
2022/04/03 10:39:53;;;;;;;4.82;4.35;;;21.90;65.10;;;;;;6263763;27;82205;-70
2022/04/03 10:42:58;;;;;;;5.25;4.75;;;21.90;65.20;;;;;;6263168;27;83955;-70
2022/04/03 10:46:00;;;;;;;4.70;4.30;;;21.90;65.20;;;;;;6257609;27;84765;-69
2022/04/03 10:49:02;;;;;;;4.97;4.55;;;21.90;65.20;;;;;;6253647;27;85020;-70
2022/04/03 10:52:07;;;;;;;5.20;4.70;;;21.90;65.20;;;;;;6261900;27;84343;-69
2022/04/03 10:55:13;;;;;;;5.15;4.75;;;21.90;65.30;;;;;;6263783;27;83939;-69
2022/04/03 10:58:17;;;;;;;5.15;4.65;;;21.90;65.20;;;;;;6263671;27;84080;-69
2022/04/03 11:01:25;;;;;;;5.38;4.88;;;21.90;65.20;;;;;;6262228;27;84550;-69
2022/04/03 11:04:27;;;;;;;5.82;5.32;;;21.90;65.30;;;;;;6240438;28;83945;-70
2022/04/03 11:07:30;;;;;;;5.47;4.97;;;21.90;65.20;;;;;;6262345;27;83996;-70
2022/04/03 11:10:48;;;;;;;5.32;4.82;;;21.90;65.20;;;;;;6261412;28;83223;-70
2022/04/03 11:13:50;;;;;;;5.35;4.85;;;21.90;65.20;;;;;;6263030;27;82890;-70
2022/04/03 11:16:56;;;;;;;5.40;4.90;;;21.90;65.20;;;;;;6260900;27;83916;-70
2022/04/03 11:19:59;;;;;;;5.68;5.18;;;21.90;65.20;;;;;;6260549;27;85262;-70
2022/04/03 11:23:05;;;;;;;5.55;5.05;;;22.00;65.30;;;;;;6262781;27;84104;-70
2022/04/03 11:26:08;;;;;;;5.60;5.10;;;22.00;65.30;;;;;;6262581;27;82963;-70
2022/04/03 11:29:12;;;;;;;5.63;5.13;;;21.90;65.20;;;;;;6259591;27;84092;-70
2022/04/03 11:32:15;;;;;;;5.65;5.03;;;21.90;65.20;;;;;;6262254;27;82919;-70
2022/04/03 11:35:31;;;;;;;5.72;5.22;;;21.90;65.20;;;;;;6260720;27;83948;-70
2022/04/03 11:38:39;;;;;;;6.00;5.40;;;22.00;65.20;;;;;;6260293;27;84195;-70
2022/04/03 11:41:46;;;;;;;5.40;4.90;;;22.00;65.20;;;;;;6262787;27;83267;-70
2022/04/03 11:44:53;;;;;;;5.82;5.20;;;21.90;65.10;;;;;;6261674;27;84428;-70
2022/04/03 11:48:14;;;;;;;5.72;5.22;;;22.00;65.20;;;;;;6254277;28;82932;-70
2022/04/03 11:51:18;;;;;;;5.80;5.28;;;22.00;65.20;;;;;;6258561;27;85126;-70
2022/04/03 11:54:25;;;;;;;5.47;4.97;;;22.00;65.20;;;;;;6263120;27;85646;-70
2022/04/03 11:57:27;;;;;;;5.80;5.18;;;21.90;65.10;;;;;;6262844;27;84468;-70
2022/04/03 12:00:30;;;;;;;5.55;5.05;;;22.00;65.20;;;;;;6261761;27;84028;-69
2022/04/03 12:03:34;;;;;;;5.32;4.82;;;22.00;65.20;;;;;;6260691;27;82951;-70
2022/04/03 12:06:37;;;;;;;5.60;5.10;;;21.90;65.10;;;;;;6247836;27;84021;-70
2022/04/03 12:09:42;;;;;;;5.65;5.15;;;22.00;65.20;;;;;;6261957;27;83879;-69
2022/04/03 12:12:44;;;;;;;5.68;5.18;;;21.90;65.10;;;;;;6260995;27;83589;-69
2022/04/03 12:15:46;;;;;;;5.38;4.88;;;21.90;65.10;;;;;;6259346;27;84309;-70
2022/04/03 12:18:55;;;;;;;5.38;4.88;;;21.90;65.10;;;;;;6262291;27;84062;-70
2022/04/03 12:22:00;;;;;;;5.05;4.65;;;21.90;65.20;;;;;;6258457;28;84869;-70
2022/04/03 12:25:06;;;;;;;5.20;4.70;;;21.90;65.10;;;;;;6261147;27;84057;-70
2022/04/03 12:28:08;;;;;;;5.22;4.82;;;21.90;65.10;;;;;;6259749;27;82947;-69
2022/04/03 12:31:13;;;;;;;5.65;5.15;;;21.90;65.10;;;;;;6250707;28;82873;-70
2022/04/03 12:34:17;;;;;;;5.57;5.03;;;21.90;65.00;;;;;;6260531;27;82931;-70
2022/04/03 12:37:20;;;;;;;5.00;4.60;;;22.00;65.20;;;;;;6261973;27;84034;-69
2022/04/03 12:40:24;;;;;;;5.10;4.65;;;22.00;65.20;;;;;;6258532;27;83995;-70
2022/04/03 12:43:26;;;;;;;5.60;5.10;;;21.90;65.00;;;;;;6261887;27;83306;-70
2022/04/03 12:46:37;;;;;;;5.40;4.90;;;22.00;65.10;;;;;;6261223;27;82993;-69
2022/04/03 12:49:40;;;;;;;5.38;4.88;;;22.00;65.10;;;;;;6261005;27;83927;-69
2022/04/03 12:52:50;;;;;;;5.30;4.80;;;22.00;65.10;;;;;;6261245;27;84885;-70
2022/04/03 12:55:56;;;;;;;5.20;4.80;;;22.00;65.00;;;;;;6262005;27;84363;-70
2022/04/03 12:58:57;;;;;;;5.70;5.20;;;22.00;65.00;;;;;;6261678;27;84329;-70
2022/04/03 13:01:59;;;;;;;5.18;4.70;;;22.00;65.00;;;;;;6261326;27;83840;-69
2022/04/03 13:05:01;;;;;;;5.55;5.05;;;22.00;65.00;;;;;;6259151;27;83992;-70
2022/04/03 13:08:10;;;;;;;5.50;5.00;;;22.00;65.00;;;;;;6259154;27;82997;-69
2022/04/03 13:11:29;;;;;;;5.07;4.57;;;22.00;65.00;;;;;;6258672;27;82936;-69
2022/04/03 13:14:35;;;;;;;5.03;4.53;;;22.00;65.00;;;;;;6258108;27;83347;-69
2022/04/03 13:17:37;;;;;;;5.22;4.50;;;22.00;65.00;;;;;;6260058;27;83923;-69
2022/04/03 13:20:39;;;;;;;5.03;4.63;;;22.00;65.00;;;;;;6248023;27;85335;-69
2022/04/03 13:23:41;;;;;;;5.07;4.57;;;22.00;64.90;;;;;;6250396;27;84291;-69
2022/04/03 13:26:45;;;;;;;5.03;4.63;;;22.00;64.60;;;;;;6254426;27;84083;-69
2022/04/03 13:29:47;;;;;;;4.90;4.40;;;22.00;64.70;;;;;;6244359;27;82733;-69
2022/04/03 13:32:49;;;;;;;4.65;4.22;;;22.00;64.80;;;;;;6255215;27;83292;-69
2022/04/03 13:35:51;;;;;;;4.65;4.25;;;22.00;64.90;;;;;;6255264;27;84015;-69
2022/04/03 13:38:55;;;;;;;4.72;4.32;;;22.00;64.80;;;;;;6253162;27;84007;-69
2022/04/03 13:42:02;;;;;;;4.75;4.35;;;22.00;64.80;;;;;;6256536;27;82993;-70
2022/04/03 13:45:05;;;;;;;4.60;4.20;;;22.00;64.80;;;;;;6255608;27;83211;-70
2022/04/03 13:48:08;;;;;;;4.60;4.20;;;22.00;64.80;;;;;;6255437;27;84381;-69
2022/04/03 13:51:12;;;;;;;4.95;4.45;;;22.00;64.90;;;;;;6253454;27;84008;-69
2022/04/03 13:54:14;;;;;;;4.70;4.30;;;22.00;64.90;;;;;;6245774;27;85444;-70
2022/04/03 13:57:17;;;;;;;4.45;4.05;;;22.00;64.90;;;;;;6255541;27;84190;-70
2022/04/03 14:00:20;;;;;;;4.70;4.30;;;22.00;64.90;;;;;;6255003;27;84429;-70
2022/04/03 14:03:24;;;;;;;4.80;4.30;;;22.00;64.90;;;;;;6253895;27;84082;-70
2022/04/03 14:06:26;;;;;;;4.75;4.20;;;22.00;65.00;;;;;;6252813;27;84065;-70
2022/04/03 14:09:29;;;;;;;4.70;4.20;;;22.00;65.60;;;;;;6250243;27;84347;-70
2022/04/03 14:12:32;;;;;;;4.40;4.00;;;22.00;65.60;;;;;;6252482;27;84165;-70
2022/04/03 14:15:36;;;;;;;6.72;4.03;;;22.00;65.50;;;;;;6252261;27;83414;-71
2022/04/03 14:18:38;;;;;;;4.78;4.20;;;22.00;65.40;;;;;;6254104;27;83788;-71
2022/04/03 14:21:40;;;;;;;4.68;4.18;;;22.00;65.40;;;;;;6250463;28;83906;-72
2022/04/03 14:24:42;;;;;;;4.47;3.83;;;22.00;66.30;;;;;;6249879;27;85220;-71
2022/04/03 14:27:46;;;;;;;5.25;4.07;;;22.00;65.40;;;;;;6252523;27;84042;-71
2022/04/03 14:30:48;;;;;;;4.65;3.80;;;22.00;65.40;;;;;;6248385;27;84050;-71
2022/04/03 14:33:51;;;;;;;4.82;4.43;;;22.00;65.40;;;;;;6246672;27;84116;-72
2022/04/03 14:36:54;;;;;;;4.07;3.78;;;22.00;65.40;;;;;;6249099;27;83037;-72
2022/04/03 14:39:56;;;;;;;4.65;4.15;;;22.00;65.50;;;;;;6250097;27;84057;-71
2022/04/03 14:42:59;;;;;;;5.30;4.05;;;22.00;65.50;;;;;;6247405;27;84353;-70
2022/04/03 14:46:01;;;;;;;4.40;3.90;;;22.00;65.50;;;;;;6251816;27;83552;-71
2022/04/03 14:49:03;;;;;;;4.88;3.92;;;22.00;65.70;;;;;;6244903;27;84514;-70
2022/04/03 14:52:06;;;;;;;4.15;3.45;;;22.00;65.70;;;;;;6251913;27;83886;-71
2022/04/03 14:55:09;;;;;;;4.03;3.70;;;22.00;65.60;;;;;;6258978;27;85263;-71
2022/04/03 14:58:14;;;;;;;4.22;3.80;;;22.00;65.70;;;;;;6257124;27;83969;-71
2022/04/03 15:01:16;;;;;;;4.55;3.78;;;22.00;65.70;;;;;;6258647;27;82999;-70
2022/04/03 15:04:18;;;;;;;4.10;3.72;;;22.00;65.70;;;;;;6260893;27;82916;-71
2022/04/03 15:07:20;;;;;;;4.13;3.72;;;22.00;65.70;;;;;;6262668;27;83884;-71
2022/04/03 15:10:23;;;;;;;5.75;3.42;;;22.00;65.50;;;;;;6261461;27;83965;-71
2022/04/03 15:13:26;;;;;;;5.53;3.80;;;22.00;65.50;;;;;;6261445;27;82960;-71
2022/04/03 15:16:28;;;;;;;3.72;3.42;;;22.00;65.50;;;;;;6262565;27;83131;-71
2022/04/03 15:19:30;;;;;;;3.78;3.47;;;22.10;65.50;;;;;;6261781;27;84044;-71
2022/04/03 15:22:32;;;;;;;4.57;3.42;;;22.10;65.40;;;;;;6261702;27;83892;-70
2022/04/03 15:25:35;;;;;;;4.28;3.88;;;22.00;65.30;;;;;;6260700;27;85058;-70
2022/04/03 15:28:38;;;;;;;3.95;3.53;;;22.00;65.20;;;;;;6263890;27;84108;-71
2022/04/03 15:31:41;;;;;;;4.22;3.83;;;22.10;65.40;;;;;;6261150;27;84000;-71
2022/04/03 15:34:43;;;;;;;3.58;3.28;;;22.00;65.20;;;;;;6263038;27;84096;-70
2022/04/03 15:37:45;;;;;;;3.58;3.28;;;22.10;65.20;;;;;;6261705;27;84027;-70
2022/04/03 15:40:47;;;;;;;3.60;3.30;;;22.00;65.20;;;;;;6261121;27;82976;-69
2022/04/03 15:43:50;;;;;;;4.00;3.50;;;22.00;65.20;;;;;;6259349;27;83294;-68
2022/04/03 15:46:52;;;;;;;3.80;3.40;;;22.00;65.10;;;;;;6262510;27;83269;-68
2022/04/03 15:49:54;;;;;;;4.13;3.72;;;22.00;65.20;;;;;;6260220;27;84036;-71
2022/04/03 15:52:56;;;;;;;3.50;3.20;;;22.00;65.10;;;;;;6263176;27;84032;-71
2022/04/03 15:55:58;;;;;;;3.33;3.03;;;22.00;65.10;;;;;;6259597;27;84860;-71